Time;durP1;ratioP1;P1;durP2;ratioP2;P2;SDS_P1;SDS_P2;PMS_P1;PMS_P2;Temp;Humidity;BMP_temperature;BMP_pressure;BME280_temperature;BME280_humidity;BME280_pressure;Samples;Min_cycle;Max_cycle;Signal;HPM_P1;HPM_P2
2022/01/01 00:02:11;;;;;;;38.13;21.33;;;;;;;11.38;98.15;102173.81;5026714;28;20483;-87
2022/01/01 00:04:36;;;;;;;42.78;20.77;;;;;;;11.31;98.08;102163.41;5012158;28;20394;-87
2022/01/01 00:07:01;;;;;;;55.72;31.42;;;;;;;11.39;98.03;102164.03;5030828;28;20017;-87
2022/01/01 00:09:26;;;;;;;36.15;19.52;;;;;;;11.35;98.36;102165.91;5028181;28;20080;-87
2022/01/01 00:11:52;;;;;;;47.42;21.85;;;;;;;11.33;98.28;102174.88;5028421;28;20391;-87
2022/01/01 00:14:17;;;;;;;39.53;18.38;;;;;;;11.29;98.51;102173.25;5030536;28;20029;-87
2022/01/01 00:16:42;;;;;;;37.65;16.65;;;;;;;11.30;98.34;102175.00;5031517;28;20033;-88
2022/01/01 00:19:07;;;;;;;35.05;16.75;;;;;;;11.28;98.43;102171.50;5031014;28;20029;-87
2022/01/01 00:21:33;;;;;;;32.60;17.25;;;;;;;11.21;98.54;102168.19;5021197;28;20018;-87
2022/01/01 00:23:58;;;;;;;44.10;20.08;;;;;;;11.27;98.82;102183.09;5029802;28;20029;-87
2022/01/01 00:26:23;;;;;;;50.25;27.95;;;;;;;11.22;98.66;102180.56;5030843;28;20122;-87
2022/01/01 00:28:48;;;;;;;48.20;26.48;;;;;;;11.24;98.62;102189.38;5031735;28;20029;-87
2022/01/01 00:31:14;;;;;;;40.53;21.92;;;;;;;11.19;98.98;102192.19;5010499;28;20048;-87
2022/01/01 00:33:39;;;;;;;42.00;20.25;;;;;;;11.17;98.94;102195.84;5031499;28;20036;-87
2022/01/01 00:36:05;;;;;;;36.42;16.58;;;;;;;11.12;99.11;102184.44;5031698;28;20025;-87
2022/01/01 00:38:31;;;;;;;35.50;15.90;;;;;;;11.16;98.96;102186.06;5031119;28;20033;-88
2022/01/01 00:40:56;;;;;;;32.80;15.88;;;;;;;11.22;99.09;102193.91;5027298;28;20475;-87
2022/01/01 00:43:21;;;;;;;39.17;17.15;;;;;;;11.21;98.86;102189.50;5031608;28;20021;-87
2022/01/01 00:45:47;;;;;;;36.25;14.98;;;;;;;11.26;98.72;102182.22;5013836;28;20386;-87
2022/01/01 00:48:12;;;;;;;35.90;15.52;;;;;;;11.27;98.81;102178.63;5031455;28;20029;-86
2022/01/01 00:50:38;;;;;;;28.33;15.05;;;;;;;11.28;98.77;102169.69;5011715;28;20048;-87
2022/01/01 00:53:03;;;;;;;31.67;14.63;;;;;;;11.27;98.76;102170.63;5029539;28;20034;-88
2022/01/01 00:55:29;;;;;;;36.35;14.05;;;;;;;11.31;98.60;102166.94;5031149;28;20036;-88
2022/01/01 00:57:54;;;;;;;34.65;17.02;;;;;;;11.25;98.74;102164.50;5030201;28;20285;-88
2022/01/01 01:00:19;;;;;;;32.17;15.75;;;;;;;11.27;98.63;102177.75;5021567;28;20029;-88
2022/01/01 01:02:44;;;;;;;34.13;17.35;;;;;;;11.25;98.77;102176.94;5015863;28;20100;-88
2022/01/01 01:05:10;;;;;;;38.60;19.10;;;;;;;11.26;98.66;102184.00;5030147;28;20039;-88
2022/01/01 01:07:35;;;;;;;42.67;18.83;;;;;;;11.29;98.47;102192.78;5030705;28;20252;-88
2022/01/01 01:10:01;;;;;;;36.95;18.10;;;;;;;11.28;98.57;102193.69;5024492;28;20022;-87
2022/01/01 01:12:37;;;;;;;35.17;16.55;;;;;;;11.28;98.47;102187.47;5004569;28;20117;-88
2022/01/01 01:15:03;;;;;;;35.70;16.70;;;;;;;11.27;98.30;102181.28;5010139;28;20040;-87
2022/01/01 01:17:29;;;;;;;34.58;17.02;;;;;;;11.29;98.25;102187.47;5011138;28;20475;-87
2022/01/01 01:19:54;;;;;;;37.67;16.25;;;;;;;11.32;98.01;102195.31;5015607;28;20323;-87
2022/01/01 01:22:19;;;;;;;32.95;15.60;;;;;;;11.31;98.21;102193.59;5030229;28;20026;-87
2022/01/01 01:24:45;;;;;;;34.80;16.67;;;;;;;11.31;97.87;102193.59;5013194;28;20049;-87
2022/01/01 01:27:10;;;;;;;30.92;15.27;;;;;;;11.32;98.36;102199.78;5012148;28;20052;-87
2022/01/01 01:29:41;;;;;;;35.22;16.27;;;;;;;11.32;98.39;102192.66;5027163;28;20022;-87
2022/01/01 01:32:07;;;;;;;34.10;15.55;;;;;;;11.27;98.53;102194.63;5030394;28;20068;-87
2022/01/01 01:34:32;;;;;;;31.15;15.32;;;;;;;11.29;98.62;102195.44;5031090;28;20057;-86
2022/01/01 01:36:57;;;;;;;33.22;14.90;;;;;;;11.33;98.77;102201.53;5033151;28;20021;-86
2022/01/01 01:39:22;;;;;;;35.95;14.43;;;;;;;11.32;98.60;102191.78;5037947;28;20055;-87
2022/01/01 01:41:49;;;;;;;33.20;13.82;;;;;;;11.34;98.54;102203.28;5024970;28;20206;-87
2022/01/01 01:44:25;;;;;;;28.90;14.07;;;;;;;11.36;98.47;102204.09;5025687;28;20037;-87
2022/01/01 01:46:50;;;;;;;28.50;12.18;;;;;;;11.34;98.49;102198.84;5040658;28;20552;-88
2022/01/01 01:49:15;;;;;;;28.33;12.27;;;;;;;11.34;98.57;102192.63;5033926;28;20033;-88
2022/01/01 01:51:41;;;;;;;30.88;13.00;;;;;;;11.33;98.54;102207.75;5031146;28;20025;-88
2022/01/01 01:54:10;;;;;;;31.77;13.68;;;;;;;11.29;98.46;102211.44;5028813;28;20030;-88
2022/01/01 01:56:35;;;;;;;29.95;13.40;;;;;;;11.23;98.73;102220.50;5029919;28;20192;-88
2022/01/01 01:59:00;;;;;;;27.52;12.52;;;;;;;11.19;98.75;102218.84;5028426;28;20104;-86
2022/01/01 02:01:27;;;;;;;28.30;12.20;;;;;;;11.21;99.09;102232.13;5010713;28;20121;-86
2022/01/01 02:03:56;;;;;;;28.75;12.38;;;;;;;11.19;98.97;102236.63;5018253;28;20052;-87
2022/01/01 02:06:22;;;;;;;27.27;12.70;;;;;;;11.22;98.97;102233.88;5029162;28;20436;-85
2022/01/01 02:08:49;;;;;;;30.60;13.43;;;;;;;11.21;98.94;102230.34;5029154;28;20042;-86
2022/01/01 02:11:16;;;;;;;27.73;11.90;;;;;;;11.20;98.84;102233.03;5008853;28;20033;-86
2022/01/01 02:18:47;;;;;;;24.67;11.43;;;;;;;11.24;98.60;102224.03;5027997;28;20029;-87
2022/01/01 02:21:13;;;;;;;22.95;11.25;;;;;;;11.26;98.77;102224.00;5025334;28;20025;-87
2022/01/01 02:23:42;;;;;;;24.67;11.88;;;;;;;11.24;98.68;102218.69;5029165;28;20026;-87
2022/01/01 02:26:11;;;;;;;23.52;11.45;;;;;;;11.25;98.89;102219.59;5028677;28;20076;-87
2022/01/01 02:28:39;;;;;;;27.13;11.55;;;;;;;11.25;98.80;102217.78;5028895;28;20033;-87
2022/01/01 02:31:05;;;;;;;26.73;11.95;;;;;;;11.19;98.55;102201.97;5011917;28;20407;-86
2022/01/01 02:33:32;;;;;;;25.88;13.52;;;;;;;11.24;98.67;102208.03;5011530;28;20030;-87
2022/01/01 02:35:57;;;;;;;24.75;12.65;;;;;;;11.22;98.50;102215.22;5028717;28;20029;-87
2022/01/01 02:38:22;;;;;;;27.48;13.63;;;;;;;11.21;98.40;102203.69;5028842;28;20475;-86
2022/01/01 02:40:48;;;;;;;28.48;13.32;;;;;;;11.25;98.25;102208.94;5027211;28;20057;-87
2022/01/01 02:43:14;;;;;;;25.80;13.07;;;;;;;11.25;98.19;102206.25;5027832;28;20048;-87
2022/01/01 02:45:39;;;;;;;28.15;14.05;;;;;;;11.18;98.34;102186.91;5028745;28;20529;-86
2022/01/01 02:48:05;;;;;;;25.02;13.30;;;;;;;11.18;98.59;102192.25;5027734;28;20105;-87
2022/01/01 02:50:30;;;;;;;28.85;12.98;;;;;;;11.24;98.37;102208.03;5025328;28;20390;-87
2022/01/01 02:52:55;;;;;;;26.92;12.50;;;;;;;11.23;98.53;102211.63;5028603;28;20033;-87
2022/01/01 02:55:20;;;;;;;30.73;13.15;;;;;;;11.21;98.48;102206.34;5028958;28;20506;-86
2022/01/01 02:57:46;;;;;;;28.95;12.15;;;;;;;11.16;98.45;102194.97;5028582;28;20029;-87
2022/01/01 03:00:11;;;;;;;22.60;11.95;;;;;;;11.19;98.44;102199.31;5026320;28;20029;-87
2022/01/01 03:02:37;;;;;;;25.90;12.23;;;;;;;11.21;98.45;102194.81;5028164;28;20100;-87
2022/01/01 03:05:02;;;;;;;26.48;11.50;;;;;;;11.22;98.19;102183.22;5026488;28;20441;-87
2022/01/01 03:07:28;;;;;;;23.33;11.50;;;;;;;11.23;98.30;102183.16;5028161;28;20104;-87
2022/01/01 03:09:53;;;;;;;24.98;11.35;;;;;;;11.15;98.29;102169.22;5021237;28;20104;-87
2022/01/01 03:12:18;;;;;;;20.60;11.52;;;;;;;11.22;98.37;102188.56;5022467;28;20463;-87
2022/01/01 03:14:44;;;;;;;24.65;11.90;;;;;;;11.22;98.25;102189.44;5028323;28;20021;-87
2022/01/01 03:17:09;;;;;;;22.52;11.48;;;;;;;11.23;98.63;102193.84;5010351;28;20102;-87
2022/01/01 03:19:35;;;;;;;30.73;11.35;;;;;;;11.23;98.09;102190.31;5027135;28;20036;-87
2022/01/01 03:22:02;;;;;;;22.02;11.00;;;;;;;11.21;98.09;102181.50;5027112;28;20079;-87
2022/01/01 03:24:27;;;;;;;25.45;10.68;;;;;;;11.25;98.01;102192.94;5028440;28;20471;-87
2022/01/01 03:26:52;;;;;;;24.55;10.95;;;;;;;11.23;98.06;102188.50;5028558;28;20335;-87
2022/01/01 03:29:18;;;;;;;22.83;10.80;;;;;;;11.23;97.93;102191.16;5025228;28;20061;-87
2022/01/01 03:31:43;;;;;;;25.88;11.18;;;;;;;11.22;97.70;102175.25;5025045;28;20056;-87
2022/01/01 03:34:09;;;;;;;23.25;11.50;;;;;;;11.23;98.16;102183.16;5027683;28;20099;-87
2022/01/01 03:36:35;;;;;;;23.83;10.95;;;;;;;11.22;97.98;102186.75;5028595;28;20044;-87
2022/01/01 03:39:01;;;;;;;20.80;10.77;;;;;;;11.18;97.95;102181.59;5027865;28;20025;-86
2022/01/01 03:41:26;;;;;;;30.10;11.05;;;;;;;11.19;97.86;102176.19;5014184;28;20166;-87
2022/01/01 03:43:52;;;;;;;22.73;10.55;;;;;;;11.18;97.96;102181.59;5032433;28;20116;-87
2022/01/01 03:46:17;;;;;;;21.15;11.20;;;;;;;11.17;97.72;102171.84;5030322;28;20497;-87
2022/01/01 03:48:43;;;;;;;18.05;9.27;;;;;;;11.16;97.98;102170.09;5031437;28;20036;-87
2022/01/01 03:51:08;;;;;;;20.73;10.07;;;;;;;11.13;97.80;102167.53;5030487;28;20033;-87
2022/01/01 03:53:33;;;;;;;17.98;10.27;;;;;;;11.14;97.65;102170.16;5032203;28;20057;-87
2022/01/01 03:55:59;;;;;;;21.75;10.85;;;;;;;11.18;97.66;102173.59;5031509;28;20437;-88
2022/01/01 03:58:24;;;;;;;20.35;10.10;;;;;;;11.14;97.58;102174.63;5031626;28;20425;-88
2022/01/01 04:00:50;;;;;;;23.30;10.40;;;;;;;11.17;97.40;102174.53;5016508;28;20037;-88
2022/01/01 04:03:16;;;;;;;23.15;10.18;;;;;;;11.16;97.35;102170.09;5031555;28;20060;-88
2022/01/01 04:05:43;;;;;;;17.73;9.10;;;;;;;11.16;97.26;102157.66;5031929;28;20100;-88
2022/01/01 04:08:10;;;;;;;20.55;9.23;;;;;;;11.17;97.34;102153.22;5031019;28;20025;-88
2022/01/01 04:10:36;;;;;;;17.10;9.80;;;;;;;11.15;97.12;102155.91;5016646;28;20029;-88
2022/01/01 04:13:03;;;;;;;19.52;9.82;;;;;;;11.16;96.92;102162.09;5011264;28;20121;-88
2022/01/01 04:15:30;;;;;;;19.95;8.63;;;;;;;11.08;97.10;102158.84;5011574;28;20033;-88
2022/01/01 04:18:00;;;;;;;18.65;9.32;;;;;;;11.11;97.00;102166.72;5019560;28;20033;-87
2022/01/01 04:20:26;;;;;;;15.85;9.05;;;;;;;11.08;97.14;102164.16;5017793;28;20084;-87
2022/01/01 04:22:53;;;;;;;18.95;8.65;;;;;;;11.03;96.77;102168.75;5011579;28;20026;-87
2022/01/01 04:25:20;;;;;;;21.38;9.63;;;;;;;11.02;97.25;102164.34;5011332;28;20033;-87
2022/01/01 04:27:45;;;;;;;17.63;9.50;;;;;;;11.02;97.27;102161.69;5014980;28;20017;-87
2022/01/01 04:30:10;;;;;;;19.83;8.63;;;;;;;11.00;97.24;102166.19;5018097;28;20030;-87
2022/01/01 04:32:36;;;;;;;17.00;9.90;;;;;;;10.98;97.34;102168.88;5011413;28;20077;-87
2022/01/01 04:35:01;;;;;;;19.63;9.38;;;;;;;11.01;97.25;102171.47;5005060;28;20057;-87
2022/01/01 04:37:26;;;;;;;21.42;9.07;;;;;;;11.03;97.44;102163.41;5031854;28;20082;-87
2022/01/01 04:39:58;;;;;;;19.55;9.68;;;;;;;11.03;97.14;102166.94;5022145;28;20387;-87
2022/01/01 04:42:23;;;;;;;21.88;12.60;;;;;;;11.06;96.95;102172.19;5031006;28;20351;-87
2022/01/01 04:44:48;;;;;;;17.50;9.75;;;;;;;11.08;97.09;102172.16;5030653;28;20517;-87
2022/01/01 04:47:14;;;;;;;22.10;9.88;;;;;;;11.08;96.96;102180.16;5031316;28;20029;-87
2022/01/01 04:49:39;;;;;;;19.48;9.40;;;;;;;11.08;96.68;102174.81;5028910;28;20033;-87
2022/01/01 04:52:04;;;;;;;20.10;9.00;;;;;;;11.08;96.64;102180.16;5030081;28;20030;-87
2022/01/01 04:54:30;;;;;;;20.98;9.65;;;;;;;11.11;96.54;102193.34;5031091;28;20091;-87
2022/01/01 04:56:55;;;;;;;15.75;9.50;;;;;;;11.11;96.49;102196.88;5031289;28;20639;-87
2022/01/01 04:59:20;;;;;;;20.65;9.15;;;;;;;11.11;96.53;102196.03;5024890;28;20459;-87
2022/01/01 05:01:45;;;;;;;23.27;10.57;;;;;;;11.09;96.79;102185.41;5011169;28;20060;-87
2022/01/01 05:04:11;;;;;;;19.95;9.27;;;;;;;11.09;96.42;102189.88;5016630;28;20356;-86
2022/01/01 05:06:37;;;;;;;17.33;9.13;;;;;;;11.11;96.36;102190.69;5034356;28;20033;-86
2022/01/01 05:09:02;;;;;;;20.20;9.45;;;;;;;11.12;96.30;102193.31;5032928;28;20032;-85
2022/01/01 05:11:28;;;;;;;18.92;10.05;;;;;;;11.10;96.53;102194.28;5041662;28;20519;-86
2022/01/01 05:13:53;;;;;;;18.33;10.10;;;;;;;11.09;96.57;102193.41;5032564;28;20057;-86
2022/01/01 05:16:19;;;;;;;18.70;9.48;;;;;;;11.07;96.41;102200.56;5032169;28;20033;-87
2022/01/01 05:18:46;;;;;;;22.63;10.60;;;;;;;11.09;96.28;102197.88;5029155;28;20033;-87
2022/01/01 05:21:12;;;;;;;21.70;9.73;;;;;;;11.08;96.17;102193.47;5010463;28;20033;-87
2022/01/01 05:23:37;;;;;;;20.55;9.35;;;;;;;11.06;96.04;102192.63;5010468;28;20464;-87
2022/01/01 05:26:02;;;;;;;19.35;9.95;;;;;;;11.06;96.13;102195.28;5027590;28;20034;-86
2022/01/01 05:28:28;;;;;;;26.90;11.43;;;;;;;11.02;96.11;102183.00;5029834;28;20033;-85
2022/01/01 05:30:53;;;;;;;35.80;15.15;;;;;;;11.06;96.18;102197.97;5011495;28;20120;-87
2022/01/01 05:33:18;;;;;;;41.80;18.92;;;;;;;11.08;96.13;102194.34;5009898;28;20040;-88
2022/01/01 05:35:43;;;;;;;39.90;17.45;;;;;;;11.09;96.10;102200.53;5027376;28;20036;-88
2022/01/01 05:38:09;;;;;;;25.40;12.30;;;;;;;11.06;96.25;102198.81;5029588;28;20095;-88
2022/01/01 05:40:34;;;;;;;25.52;9.63;;;;;;;11.04;96.08;102199.81;5012577;28;20026;-85
2022/01/01 05:43:00;;;;;;;15.15;8.55;;;;;;;11.04;96.05;102205.16;5017840;28;20037;-87
2022/01/01 05:45:25;;;;;;;18.45;8.38;;;;;;;11.01;95.98;102200.78;5028526;28;20044;-87
2022/01/01 05:47:50;;;;;;;16.80;9.02;;;;;;;11.02;95.80;102205.19;5029913;28;20113;-87
2022/01/01 05:50:17;;;;;;;15.73;7.82;;;;;;;11.02;95.93;102204.31;5015787;28;20030;-87
2022/01/01 05:52:42;;;;;;;19.45;7.72;;;;;;;11.03;95.60;102208.72;5029823;28;20498;-87
2022/01/01 05:55:08;;;;;;;17.23;8.55;;;;;;;11.02;95.27;102205.19;5025994;28;20052;-86
2022/01/01 05:57:34;;;;;;;14.82;7.60;;;;;;;11.08;95.07;102201.47;5029299;28;20037;-86
2022/01/01 05:59:59;;;;;;;15.68;7.18;;;;;;;11.04;95.04;102195.34;5026763;28;20402;-87
2022/01/01 06:02:24;;;;;;;16.30;7.68;;;;;;;11.06;94.75;102193.50;5028556;28;20029;-87
2022/01/01 06:04:49;;;;;;;15.57;7.57;;;;;;;11.09;94.60;102200.53;5029304;28;20030;-86
2022/01/01 06:07:15;;;;;;;18.45;6.97;;;;;;;11.06;94.31;102187.31;5029041;28;20021;-87
2022/01/01 06:09:40;;;;;;;16.80;6.93;;;;;;;11.10;94.21;102197.81;5022553;28;20030;-87
2022/01/01 06:12:06;;;;;;;16.65;7.20;;;;;;;11.12;94.04;102198.66;5019000;28;20407;-87
2022/01/01 06:14:31;;;;;;;13.38;6.28;;;;;;;11.15;93.79;102195.88;5029222;28;20387;-86
2022/01/01 06:16:56;;;;;;;17.65;6.95;;;;;;;11.12;93.56;102195.09;5028936;28;20021;-87
2022/01/01 06:19:21;;;;;;;18.42;7.40;;;;;;;11.12;93.86;102192.41;5022282;28;20105;-87
2022/01/01 06:21:47;;;;;;;16.48;6.80;;;;;;;11.06;93.74;102185.50;5009368;28;20052;-87
2022/01/01 06:24:12;;;;;;;11.48;6.70;;;;;;;11.09;94.10;102189.88;5014357;28;20479;-87
2022/01/01 06:26:37;;;;;;;11.45;6.15;;;;;;;11.03;93.61;102180.28;5026837;28;20034;-87
2022/01/01 06:29:02;;;;;;;14.70;7.00;;;;;;;10.92;93.92;102175.28;5024062;28;20052;-87
2022/01/01 06:31:28;;;;;;;19.45;7.10;;;;;;;10.84;93.92;102184.44;5009300;28;20041;-87
2022/01/01 06:33:54;;;;;;;11.18;6.68;;;;;;;10.70;94.27;102177.75;5013567;28;20487;-87
2022/01/01 06:36:19;;;;;;;14.15;6.13;;;;;;;10.64;94.43;102185.03;5028328;28;20033;-87
2022/01/01 06:38:45;;;;;;;15.57;6.55;;;;;;;10.52;94.96;102180.06;5027403;28;20079;-86
2022/01/01 06:41:11;;;;;;;15.75;6.28;;;;;;;10.54;94.75;102195.09;5026384;28;20021;-87
2022/01/01 06:43:38;;;;;;;14.82;6.22;;;;;;;10.51;94.87;102192.50;5028734;28;20040;-85
2022/01/01 06:46:03;;;;;;;15.70;6.32;;;;;;;10.52;95.12;102198.69;5027874;28;20034;-85
2022/01/01 06:48:29;;;;;;;15.43;6.00;;;;;;;10.51;95.28;102197.84;5027200;28;20462;-85
2022/01/01 06:50:54;;;;;;;14.20;6.88;;;;;;;10.48;95.21;102195.25;5009535;28;20506;-86
2022/01/01 06:53:19;;;;;;;16.23;6.22;;;;;;;10.48;95.32;102204.09;4993031;28;20044;-86
2022/01/01 06:55:45;;;;;;;15.80;6.28;;;;;;;10.43;95.36;102198.06;5027775;28;20037;-86
2022/01/01 06:58:10;;;;;;;14.57;6.10;;;;;;;10.36;95.35;102199.13;5009292;28;20033;-86
2022/01/01 07:00:37;;;;;;;15.13;6.00;;;;;;;10.30;95.76;102196.66;5014221;28;20051;-86
2022/01/01 07:03:03;;;;;;;14.07;6.38;;;;;;;10.21;95.69;102196.88;5010247;28;20155;-84
2022/01/01 07:05:28;;;;;;;13.13;6.00;;;;;;;10.18;95.93;102203.16;5028158;28;20116;-86
2022/01/01 07:07:53;;;;;;;17.77;6.60;;;;;;;10.16;95.90;102207.66;5028497;28;20029;-86
2022/01/01 07:10:19;;;;;;;19.17;6.78;;;;;;;10.15;96.25;102215.66;5023057;28;20437;-86
2022/01/01 07:12:44;;;;;;;15.82;6.70;;;;;;;10.08;96.58;102212.31;5027985;28;20031;-86
2022/01/01 07:15:10;;;;;;;15.65;7.00;;;;;;;10.10;96.84;102223.78;5027060;28;20066;-91
2022/01/01 07:17:36;;;;;;;18.95;6.35;;;;;;;10.10;96.91;102217.59;5027077;28;20402;-87
2022/01/01 07:20:03;;;;;;;15.10;6.78;;;;;;;10.19;96.60;102226.19;5025395;28;20028;-90
2022/01/01 07:22:28;;;;;;;17.40;6.47;;;;;;;10.26;96.40;102234.03;5022777;28;20021;-89
2022/01/01 07:24:53;;;;;;;15.50;6.63;;;;;;;10.30;96.02;102227.72;5008594;28;20036;-85
2022/01/01 07:27:20;;;;;;;15.23;5.88;;;;;;;10.38;95.86;102233.72;5008021;28;20471;-84
2022/01/01 07:29:45;;;;;;;14.32;6.75;;;;;;;10.41;95.67;102236.28;5019193;28;20026;-87
2022/01/01 07:32:10;;;;;;;18.42;6.55;;;;;;;10.37;95.64;102219.53;5027503;28;20053;-88
2022/01/01 07:34:36;;;;;;;13.80;5.78;;;;;;;10.43;95.08;102230.00;5028140;28;20181;-83
2022/01/01 07:37:01;;;;;;;13.77;6.22;;;;;;;10.45;95.17;102225.50;5026562;28;20479;-84
2022/01/01 07:39:26;;;;;;;14.05;5.88;;;;;;;10.46;95.16;102219.28;5025249;28;20061;-85
2022/01/01 07:41:52;;;;;;;22.70;6.65;;;;;;;10.48;94.60;102225.41;5026360;28;20098;-85
2022/01/01 07:44:17;;;;;;;10.90;5.82;;;;;;;10.48;94.81;102221.88;5028100;28;20037;-83
2022/01/01 07:46:42;;;;;;;16.23;5.85;;;;;;;10.43;94.56;102218.47;5010561;28;20486;-87
2022/01/01 07:49:08;;;;;;;15.00;5.82;;;;;;;10.43;94.47;102222.00;5019676;28;20084;-82
2022/01/01 07:51:33;;;;;;;10.65;5.50;;;;;;;10.47;94.37;102234.31;5008581;28;20034;-83
2022/01/01 07:53:59;;;;;;;12.20;5.20;;;;;;;10.49;94.68;102250.22;5006943;28;20030;-83
2022/01/01 07:56:24;;;;;;;14.32;5.90;;;;;;;10.50;94.23;102245.81;5007952;28;20113;-84
2022/01/01 07:58:49;;;;;;;18.73;6.40;;;;;;;10.52;94.22;102252.81;5012974;28;20037;-85
2022/01/01 08:01:15;;;;;;;11.68;6.05;;;;;;;10.51;93.96;102248.41;5007641;28;20057;-84
2022/01/01 08:03:40;;;;;;;11.00;5.72;;;;;;;10.51;93.92;102247.53;5008140;28;20418;-84
2022/01/01 08:06:05;;;;;;;12.93;6.07;;;;;;;10.55;94.04;102251.88;5007635;28;20053;-85
2022/01/01 08:08:30;;;;;;;14.15;5.72;;;;;;;10.57;93.64;102248.22;4990764;28;20103;-82
2022/01/01 08:10:56;;;;;;;14.85;6.05;;;;;;;10.56;93.54;102242.97;5011500;28;20021;-86
2022/01/01 08:13:24;;;;;;;15.98;4.97;;;;;;;10.60;93.54;102247.28;5029186;28;20067;-88
2022/01/01 08:15:51;;;;;;;9.45;5.10;;;;;;;10.60;93.58;102236.63;5028008;28;20026;-91
2022/01/01 08:18:16;;;;;;;11.05;5.05;;;;;;;10.61;93.25;102241.03;5008556;28;20033;-92
2022/01/01 08:20:42;;;;;;;12.55;5.25;;;;;;;10.58;93.30;102225.16;5029811;28;20036;-91
2022/01/01 08:23:08;;;;;;;7.43;4.75;;;;;;;10.66;93.09;102247.13;5025796;28;20059;-89
2022/01/01 08:25:34;;;;;;;10.32;5.13;;;;;;;10.62;92.82;102237.47;5031441;28;20440;-92
2022/01/01 08:28:00;;;;;;;11.20;5.05;;;;;;;10.69;93.04;102247.00;5043936;28;20071;-95
2022/01/01 08:30:25;;;;;;;19.02;5.82;;;;;;;10.67;92.74;102239.06;5043180;28;20030;-94
2022/01/01 08:32:50;;;;;;;14.15;6.20;;;;;;;10.71;92.91;102239.88;5056398;28;20061;-92
2022/01/01 08:35:15;;;;;;;15.02;5.65;;;;;;;10.75;92.53;102246.84;5054859;28;20014;-90
2022/01/01 08:37:41;;;;;;;10.35;5.20;;;;;;;10.77;92.67;102242.34;5049206;28;20105;-91
2022/01/01 08:40:07;;;;;;;12.48;5.65;;;;;;;10.78;92.42;102245.88;5032196;28;20025;-91
2022/01/01 08:42:32;;;;;;;12.82;5.75;;;;;;;10.83;92.19;102234.19;5033876;28;20053;-93
2022/01/01 08:44:58;;;;;;;10.57;5.30;;;;;;;10.85;92.16;102248.31;5040295;28;20028;-89
2022/01/01 08:47:26;;;;;;;8.73;5.15;;;;;;;10.80;91.94;102239.59;5031950;28;20029;-89
2022/01/01 08:49:55;;;;;;;12.80;5.55;;;;;;;10.82;91.90;102237.75;5016978;28;20026;-92
2022/01/01 08:52:24;;;;;;;9.45;5.18;;;;;;;10.83;92.04;102239.50;5031230;28;20057;-91
2022/01/01 08:54:55;;;;;;;11.95;5.15;;;;;;;10.86;91.82;102250.03;5038436;28;20056;-92
2022/01/01 08:57:21;;;;;;;9.60;5.03;;;;;;;10.84;92.04;102248.38;5033326;28;20518;-90
2022/01/01 08:59:46;;;;;;;15.93;5.72;;;;;;;10.87;91.58;102254.47;5029618;28;20057;-96
2022/01/01 09:02:12;;;;;;;11.73;5.55;;;;;;;10.87;91.62;102257.16;5033673;28;20026;-93
2022/01/01 09:04:37;;;;;;;11.60;5.72;;;;;;;10.88;91.94;102242.03;5048830;28;20017;-91
2022/01/01 09:07:03;;;;;;;8.98;5.15;;;;;;;10.83;91.62;102244.84;5044868;28;20029;-93
2022/01/01 09:09:28;;;;;;;11.50;5.10;;;;;;;10.82;91.38;102235.06;5030728;28;20052;-93
2022/01/01 09:11:54;;;;;;;11.25;5.70;;;;;;;10.83;91.73;102228.84;5034808;28;20487;-92
2022/01/01 09:14:19;;;;;;;13.35;5.82;;;;;;;10.76;91.54;102221.94;5032758;28;20025;-91
2022/01/01 09:16:44;;;;;;;12.88;5.57;;;;;;;10.82;91.54;102229.75;5030125;28;20041;-90
2022/01/01 09:19:10;;;;;;;13.10;5.60;;;;;;;10.85;91.45;102236.78;5029513;28;20033;-91
2022/01/01 09:21:35;;;;;;;10.57;5.38;;;;;;;10.88;91.23;102231.38;5037025;28;20124;-96
2022/01/01 09:24:01;;;;;;;12.20;5.10;;;;;;;10.86;91.30;102226.06;5022028;28;20026;-96
2022/01/01 09:26:26;;;;;;;11.75;5.00;;;;;;;10.93;91.26;102235.63;5035758;28;20360;-92
2022/01/01 09:28:52;;;;;;;15.23;5.78;;;;;;;10.95;90.97;102231.16;5027250;28;20442;-90
2022/01/01 09:31:17;;;;;;;11.68;5.63;;;;;;;10.98;90.81;102239.03;4998509;28;20500;-88
2022/01/01 09:33:43;;;;;;;13.43;4.95;;;;;;;11.01;90.81;102243.41;5022022;28;20398;-91
2022/01/01 09:36:09;;;;;;;14.48;5.47;;;;;;;11.04;90.53;102245.13;5030915;28;20101;-90
2022/01/01 09:38:36;;;;;;;11.23;5.20;;;;;;;11.01;90.38;102235.41;5028648;28;20126;-89
2022/01/01 09:41:02;;;;;;;12.25;5.35;;;;;;;11.05;90.54;102222.88;5030059;28;20017;-90
2022/01/01 09:43:30;;;;;;;13.85;5.70;;;;;;;11.05;90.41;102233.53;5030042;28;20467;-87
2022/01/01 09:45:57;;;;;;;8.73;4.90;;;;;;;11.09;90.41;102237.84;5031137;28;20033;-92
2022/01/01 09:48:24;;;;;;;8.10;5.13;;;;;;;11.09;90.00;102233.38;5029070;28;20108;-89
2022/01/01 09:50:54;;;;;;;8.57;5.38;;;;;;;11.10;90.38;102243.13;5029265;28;20028;-89
2022/01/01 09:53:20;;;;;;;10.98;5.22;;;;;;;11.10;90.04;102239.56;5012594;28;20083;-89
2022/01/01 09:55:47;;;;;;;13.52;5.63;;;;;;;11.08;90.48;102226.31;5038563;28;20029;-94
2022/01/01 09:58:12;;;;;;;13.73;5.65;;;;;;;11.07;90.33;102229.00;5031166;28;20026;-88
2022/01/01 10:00:37;;;;;;;8.88;5.13;;;;;;;11.06;90.29;102224.59;5023354;28;20032;-96
2022/01/01 10:03:03;;;;;;;11.13;6.50;;;;;;;11.03;90.11;102214.91;5040092;28;20036;-88
2022/01/01 10:05:28;;;;;;;11.93;5.60;;;;;;;11.03;90.66;102219.38;5032657;28;20025;-90
2022/01/01 10:07:53;;;;;;;9.18;5.20;;;;;;;11.09;90.01;102219.19;5037706;28;20068;-90
2022/01/01 10:10:21;;;;;;;13.30;5.47;;;;;;;11.08;90.01;102222.78;5038992;28;20056;-94
2022/01/01 10:12:47;;;;;;;12.70;5.53;;;;;;;11.05;90.54;102214.88;5045712;28;20037;-89
2022/01/01 10:15:13;;;;;;;9.82;4.90;;;;;;;11.06;90.28;102213.94;5044014;28;20069;-91
2022/01/01 10:17:39;;;;;;;9.30;4.85;;;;;;;11.09;90.58;102209.41;5031883;28;20053;-89
2022/01/01 10:20:05;;;;;;;8.90;4.90;;;;;;;11.09;90.36;102197.88;5028107;28;20040;-90
2022/01/01 10:22:31;;;;;;;10.38;5.25;;;;;;;11.14;90.13;102201.25;5039779;28;20060;-96
2022/01/01 10:27:57;;;;;;;9.07;5.18;;;;;;;11.28;89.37;102193.69;5033867;28;20036;-90
2022/01/01 10:30:28;;;;;;;7.50;4.57;;;;;;;11.34;89.70;102195.28;5024137;28;20422;-83
2022/01/01 10:33:00;;;;;;;8.38;5.00;;;;;;;11.39;89.43;102186.22;5043721;28;20064;-91
2022/01/01 10:35:26;;;;;;;10.77;5.03;;;;;;;11.41;89.27;102179.06;5028135;28;20033;-87
2022/01/01 10:37:51;;;;;;;9.73;4.90;;;;;;;11.41;89.31;102172.81;5037840;28;20017;-84
2022/01/01 10:40:27;;;;;;;10.55;4.90;;;;;;;11.45;89.44;102175.38;5031544;28;20029;-84
2022/01/01 10:42:53;;;;;;;10.80;5.10;;;;;;;11.50;88.68;102171.69;5045784;28;20029;-83
2022/01/01 10:45:37;;;;;;;10.18;5.00;;;;;;;11.54;88.97;102160.84;5033948;28;20194;-91
2022/01/01 10:48:23;;;;;;;8.77;4.35;;;;;;;11.57;88.49;102162.53;5042042;28;20040;-89
2022/01/01 10:50:53;;;;;;;8.55;4.45;;;;;;;11.58;88.35;102157.16;5021697;28;20431;-89
2022/01/01 10:53:24;;;;;;;10.15;4.97;;;;;;;11.63;87.80;102159.66;5032649;28;20296;-89
2022/01/01 10:55:52;;;;;;;10.55;4.55;;;;;;;11.68;87.87;102160.38;5035771;28;20017;-88
2022/01/01 10:58:20;;;;;;;8.68;4.53;;;;;;;11.73;87.28;102155.75;5039505;28;20365;-89
2022/01/01 11:00:47;;;;;;;9.00;4.80;;;;;;;11.78;87.94;102148.44;5047895;28;20021;-89
2022/01/01 11:03:16;;;;;;;11.63;5.15;;;;;;;11.86;87.33;102145.53;5048424;28;20055;-90
2022/01/01 11:05:43;;;;;;;9.75;4.75;;;;;;;11.96;87.19;102141.66;5046297;28;20021;-90
2022/01/01 11:08:10;;;;;;;6.88;4.72;;;;;;;12.04;87.27;102136.91;5027513;28;20025;-91
2022/01/01 11:10:36;;;;;;;8.07;4.57;;;;;;;12.06;86.23;102131.50;5037168;28;20055;-90
2022/01/01 11:13:03;;;;;;;8.93;4.63;;;;;;;12.10;86.14;102135.78;5047809;28;20031;-90
2022/01/01 11:15:29;;;;;;;8.60;4.15;;;;;;;12.11;86.15;102127.72;5011744;28;20116;-90
2022/01/01 11:17:58;;;;;;;6.93;4.35;;;;;;;12.10;85.98;102127.78;5027923;28;20141;-90